Time;durP1;ratioP1;P1;durP2;ratioP2;P2;SDS_P1;SDS_P2;PMS_P1;PMS_P2;Temp;Humidity;BMP_temperature;BMP_pressure;BME280_temperature;BME280_humidity;BME280_pressure;Samples;Min_cycle;Max_cycle;Signal;HPM_P1;HPM_P2
2023/10/08 00:00:46;;;;;;;7.93;2.63;;;;;;;9.19;100.00;101612.13;7373276;19;21117;-40
2023/10/08 00:03:17;;;;;;;9.00;3.20;;;;;;;9.11;100.00;101612.47;7397398;19;20399;-40
2023/10/08 00:05:49;;;;;;;10.53;3.03;;;;;;;9.05;100.00;101616.47;7375079;19;20419;-39
2023/10/08 00:08:22;;;;;;;14.40;3.07;;;;;;;9.08;100.00;101640.59;7397266;19;20414;-37
2023/10/08 00:10:52;;;;;;;17.87;3.13;;;;;;;9.05;100.00;101642.19;7372181;19;20470;-38
2023/10/08 00:13:22;;;;;;;13.37;3.00;;;;;;;9.07;100.00;101641.41;7397017;19;20415;-37
2023/10/08 00:15:55;;;;;;;12.00;2.80;;;;;;;9.11;100.00;101643.34;7375644;19;20431;-37
2023/10/08 00:18:25;;;;;;;9.60;3.37;;;;;;;9.07;100.00;101626.81;7397878;19;20422;-36
2023/10/08 00:21:05;;;;;;;7.20;3.23;;;;;;;9.02;100.00;101639.41;7374277;19;20467;-37
2023/10/08 00:23:41;;;;;;;11.47;3.47;;;;;;;9.09;100.00;101643.28;7399277;19;20415;-37
2023/10/08 00:26:12;;;;;;;15.33;3.80;;;;;;;9.13;100.00;101641.78;7371207;19;20498;-41
2023/10/08 00:28:42;;;;;;;6.40;3.00;;;;;;;9.12;100.00;101638.31;7396028;19;20411;-37
2023/10/08 00:31:13;;;;;;;7.70;3.20;;;;;;;9.12;100.00;101648.59;7371563;19;20863;-37
2023/10/08 00:33:44;;;;;;;23.60;4.50;;;;;;;9.15;100.00;101663.34;7397526;19;20418;-37
2023/10/08 00:36:20;;;;;;;12.50;4.13;;;;;;;9.14;100.00;101666.72;7376204;19;20823;-37
2023/10/08 00:38:53;;;;;;;9.30;3.50;;;;;;;9.10;100.00;101691.41;7397272;19;20411;-37
2023/10/08 00:41:28;;;;;;;15.33;3.77;;;;;;;9.07;100.00;101700.63;7372415;19;20475;-37
2023/10/08 00:43:59;;;;;;;13.53;4.10;;;;;;;9.08;100.00;101713.56;7375391;19;20975;-37
2023/10/08 00:46:35;;;;;;;17.13;4.67;;;;;;;9.11;100.00;101716.34;7397739;19;20403;-38
2023/10/08 00:49:23;;;;;;;11.53;4.93;;;;;;;9.08;100.00;101708.41;7374954;19;20463;-37
2023/10/08 00:52:25;;;;;;;14.63;4.57;;;;;;;9.12;100.00;101709.53;7396340;19;20435;-37
2023/10/08 00:55:08;;;;;;;25.13;5.50;;;;;;;9.10;100.00;101695.63;7373498;19;20395;-38
2023/10/08 00:57:42;;;;;;;8.43;3.93;;;;;;;9.11;100.00;101682.88;7397310;19;20769;-38
2023/10/08 01:00:21;;;;;;;13.73;3.90;;;;;;;9.15;100.00;101677.13;7371311;19;20494;-38
2023/10/08 01:03:00;;;;;;;16.40;4.03;;;;;;;9.11;100.00;101675.16;7396535;19;20420;-37
2023/10/08 01:05:42;;;;;;;15.70;4.70;;;;;;;9.09;100.00;101688.72;7368079;19;20523;-37
2023/10/08 01:08:18;;;;;;;15.60;3.90;;;;;;;8.99;100.00;101684.66;7398471;19;20432;-37
2023/10/08 01:11:00;;;;;;;15.53;4.23;;;;;;;9.01;100.00;101691.69;7371975;19;20473;-39
2023/10/08 01:13:45;;;;;;;16.30;4.27;;;;;;;9.08;100.00;101689.50;7398106;19;20409;-38
2023/10/08 01:16:18;;;;;;;14.73;4.23;;;;;;;9.08;100.00;101712.69;7374400;19;20422;-38
2023/10/08 01:18:50;;;;;;;15.70;4.03;;;;;;;9.05;100.00;101701.41;7399318;19;20395;-38
2023/10/08 01:21:33;;;;;;;14.10;3.90;;;;;;;9.02;100.00;101714.06;7369847;19;20515;-37
2023/10/08 01:24:08;;;;;;;19.10;4.40;;;;;;;9.02;100.00;101701.19;7376335;19;20408;-37
2023/10/08 01:26:39;;;;;;;10.93;3.10;;;;;;;9.00;100.00;101705.38;7397668;19;20418;-37
2023/10/08 01:29:19;;;;;;;18.13;4.40;;;;;;;8.92;100.00;101709.13;7374951;19;20387;-37
2023/10/08 01:31:49;;;;;;;10.27;3.40;;;;;;;8.93;100.00;101725.47;7396022;19;20471;-38
2023/10/08 01:34:26;;;;;;;12.63;3.33;;;;;;;8.94;100.00;101729.81;7374548;19;20416;-37
2023/10/08 01:36:56;;;;;;;8.60;3.23;;;;;;;8.93;100.00;101722.91;7395096;19;20420;-37
2023/10/08 01:39:28;;;;;;;10.97;3.40;;;;;;;8.95;100.00;101721.31;7374134;19;20460;-37
2023/10/08 01:42:02;;;;;;;13.90;3.97;;;;;;;8.96;100.00;101731.69;7395805;19;21044;-37
2023/10/08 01:44:33;;;;;;;7.80;2.90;;;;;;;8.95;100.00;101727.34;7372323;19;20411;-38
2023/10/08 01:47:03;;;;;;;9.83;2.40;;;;;;;8.86;100.00;101737.03;7397520;19;20420;-40
2023/10/08 01:49:33;;;;;;;14.63;2.80;;;;;;;8.83;100.00;101734.28;7372180;19;20539;-37
2023/10/08 01:52:07;;;;;;;6.33;3.07;;;;;;;8.87;100.00;101737.16;7396099;19;20450;-40
2023/10/08 01:54:40;;;;;;;11.73;3.07;;;;;;;8.74;100.00;101722.63;7373704;19;20402;-37
2023/10/08 01:57:10;;;;;;;8.90;2.53;;;;;;;8.76;100.00;101705.59;7394556;19;20416;-37
2023/10/08 01:59:40;;;;;;;15.13;3.13;;;;;;;8.83;100.00;101705.97;7373169;19;20399;-37
2023/10/08 02:02:09;;;;;;;12.03;4.30;;;;;;;8.79;100.00;101707.47;7393987;19;20805;-37
2023/10/08 02:04:39;;;;;;;7.67;3.03;;;;;;;8.84;100.00;101720.63;7371169;19;20411;-38
2023/10/08 02:07:12;;;;;;;12.03;2.70;;;;;;;8.84;100.00;101718.03;7395373;19;20827;-40
2023/10/08 02:09:44;;;;;;;12.03;2.67;;;;;;;8.81;100.00;101712.72;7371345;19;20852;-37
2023/10/08 02:12:15;;;;;;;7.40;2.30;;;;;;;8.81;100.00;101712.72;7393173;19;21023;-40
2023/10/08 02:14:45;;;;;;;13.50;2.53;;;;;;;8.83;100.00;101742.91;7371702;19;20414;-37
2023/10/08 02:17:14;;;;;;;15.70;2.50;;;;;;;8.80;100.00;101753.00;7393798;19;20828;-37
2023/10/08 02:19:45;;;;;;;5.80;2.13;;;;;;;8.86;100.00;101773.06;7371232;19;20434;-37
2023/10/08 02:22:15;;;;;;;7.40;2.60;;;;;;;8.81;100.00;101784.78;7393697;19;20555;-38
2023/10/08 02:24:48;;;;;;;13.43;3.70;;;;;;;8.72;100.00;101785.06;7372641;19;20843;-39
2023/10/08 02:27:17;;;;;;;17.03;2.73;;;;;;;8.76;100.00;101792.16;7393772;19;20399;-37
2023/10/08 02:29:47;;;;;;;11.83;2.17;;;;;;;8.77;100.00;101800.00;7370751;19;20413;-38
2023/10/08 02:32:18;;;;;;;6.87;2.17;;;;;;;8.74;100.00;101801.47;7393162;19;20467;-38
2023/10/08 02:34:48;;;;;;;10.13;2.33;;;;;;;8.76;100.00;101787.94;7371103;19;20413;-37
2023/10/08 02:37:19;;;;;;;15.30;2.57;;;;;;;8.75;100.00;101804.16;7393191;19;20408;-38
2023/10/08 02:39:51;;;;;;;8.50;2.30;;;;;;;8.75;100.00;101806.72;7369854;19;20408;-37
2023/10/08 02:42:22;;;;;;;9.63;2.23;;;;;;;8.77;100.00;101794.84;7393963;19;20455;-37
2023/10/08 02:44:51;;;;;;;11.20;2.80;;;;;;;8.69;100.00;101789.97;7371271;19;20412;-37
2023/10/08 02:47:21;;;;;;;13.10;3.53;;;;;;;8.71;100.00;101803.88;7395018;19;20412;-37
2023/10/08 02:49:52;;;;;;;13.50;2.07;;;;;;;8.67;100.00;101807.88;7371755;19;20395;-38
2023/10/08 02:52:21;;;;;;;9.60;2.20;;;;;;;8.66;100.00;101811.25;7393671;19;20471;-37
2023/10/08 02:54:54;;;;;;;10.30;2.33;;;;;;;8.72;100.00;101805.63;7369835;19;20446;-37
2023/10/08 02:57:23;;;;;;;6.73;2.07;;;;;;;8.69;100.00;101790.88;7395152;19;20439;-37
2023/10/08 02:59:54;;;;;;;6.53;2.67;;;;;;;8.66;100.00;101810.38;7369803;19;20427;-38
2023/10/08 03:02:24;;;;;;;8.20;2.13;;;;;;;8.67;100.00;101812.16;7393051;19;20996;-40
2023/10/08 03:04:54;;;;;;;8.77;2.03;;;;;;;8.75;100.00;101817.03;7371599;19;20399;-38
2023/10/08 03:07:31;;;;;;;6.70;1.63;;;;;;;8.71;100.00;101832.16;7393335;19;20414;-37
2023/10/08 03:10:17;;;;;;;8.20;1.67;;;;;;;8.73;100.00;101836.59;7369742;19;20422;-40
2023/10/08 03:12:49;;;;;;;8.00;2.13;;;;;;;8.71;100.00;101829.59;7393331;19;20407;-38
2023/10/08 03:15:28;;;;;;;4.80;1.80;;;;;;;8.58;100.00;101833.00;7368502;19;20415;-37
2023/10/08 03:18:08;;;;;;;5.80;1.77;;;;;;;8.55;100.00;101828.56;7394395;19;20776;-37
2023/10/08 03:20:42;;;;;;;7.07;2.00;;;;;;;8.59;100.00;101837.38;7370581;19;20534;-38
2023/10/08 03:23:23;;;;;;;10.47;1.90;;;;;;;8.64;100.00;101848.84;7392439;19;20753;-37
2023/10/08 03:26:02;;;;;;;7.40;1.97;;;;;;;8.64;100.00;101851.44;7369136;19;20822;-38
2023/10/08 03:28:34;;;;;;;10.73;1.80;;;;;;;8.56;100.00;101866.34;7392531;19;20750;-37
2023/10/08 03:31:14;;;;;;;5.80;1.43;;;;;;;8.56;100.00;101875.75;7368496;19;20539;-37
2023/10/08 03:33:49;;;;;;;7.17;1.80;;;;;;;8.46;100.00;101864.78;7392047;19;20415;-37
2023/10/08 03:36:34;;;;;;;5.70;1.53;;;;;;;8.48;100.00;101870.97;7371033;19;20791;-37
2023/10/08 03:39:11;;;;;;;3.80;1.50;;;;;;;8.50;100.00;101884.81;7371280;19;20407;-37
2023/10/08 03:41:51;;;;;;;19.80;3.13;;;;;;;8.43;100.00;101885.19;7392164;19;20463;-37
2023/10/08 03:44:21;;;;;;;5.20;2.00;;;;;;;8.26;100.00;101877.97;7370060;19;20444;-37
2023/10/08 03:46:52;;;;;;;14.10;1.63;;;;;;;8.29;100.00;101893.59;7391170;19;20435;-38
2023/10/08 03:49:28;;;;;;;8.93;1.70;;;;;;;8.31;100.00;101907.47;7370410;19;20470;-37
2023/10/08 03:51:57;;;;;;;4.00;1.30;;;;;;;8.32;100.00;101886.09;7392636;19;20546;-37
2023/10/08 03:54:34;;;;;;;8.10;2.17;;;;;;;8.27;100.00;101861.75;7368761;19;20391;-37
2023/10/08 03:57:14;;;;;;;6.47;1.67;;;;;;;8.19;100.00;101856.97;7391693;19;20773;-37
2023/10/08 03:59:48;;;;;;;5.70;1.50;;;;;;;8.16;100.00;101864.47;7368142;19;20462;-38
2023/10/08 04:02:24;;;;;;;8.90;1.70;;;;;;;8.22;100.00;101872.59;7389507;19;20478;-37
2023/10/08 04:04:56;;;;;;;7.53;1.47;;;;;;;8.23;100.00;101870.94;7368004;19;20415;-38
2023/10/08 04:07:28;;;;;;;10.60;1.60;;;;;;;8.19;100.00;101885.25;7392222;19;20427;-37
2023/10/08 04:10:34;;;;;;;6.37;2.00;;;;;;;8.16;100.00;101892.75;7377022;19;20426;-37
2023/10/08 04:12:59;;;;;;;7.37;2.30;;;;;;;8.13;100.00;101892.53;7398151;19;20498;-39
2023/10/08 04:15:29;;;;;;;6.10;1.40;;;;;;;8.07;100.00;101889.53;7373736;19;20415;-38
2023/10/08 04:18:02;;;;;;;5.50;1.80;;;;;;;8.01;100.00;101878.84;7399744;19;21006;-37
2023/10/08 04:20:38;;;;;;;7.13;2.27;;;;;;;8.16;100.00;101915.00;7372089;19;20962;-37
2023/10/08 04:23:13;;;;;;;9.43;1.97;;;;;;;8.11;100.00;101909.56;7397735;19;20399;-38
2023/10/08 04:25:44;;;;;;;10.60;2.20;;;;;;;8.03;100.00;101900.38;7377585;19;20425;-37
2023/10/08 04:28:20;;;;;;;8.43;2.60;;;;;;;8.00;100.00;101897.63;7399482;19;20404;-37
2023/10/08 04:30:50;;;;;;;5.00;1.50;;;;;;;8.04;100.00;101913.34;7373277;19;20458;-37
2023/10/08 04:33:20;;;;;;;3.70;1.70;;;;;;;8.11;100.00;101942.97;7400185;19;20403;-37
2023/10/08 04:35:55;;;;;;;10.47;2.30;;;;;;;8.12;100.00;101944.75;7375074;19;20431;-37
2023/10/08 04:38:28;;;;;;;5.40;1.50;;;;;;;8.13;100.00;101948.19;7400940;19;20442;-37
2023/10/08 04:41:01;;;;;;;9.27;2.40;;;;;;;8.11;100.00;101963.53;7373932;19;20475;-37
2023/10/08 04:43:37;;;;;;;3.00;1.70;;;;;;;8.09;100.00;101975.38;7401301;19;20959;-38
2023/10/08 04:46:19;;;;;;;7.43;1.83;;;;;;;8.04;100.00;101967.34;7375173;19;21412;-37
2023/10/08 04:48:49;;;;;;;4.10;2.07;;;;;;;7.99;100.00;101970.38;7400354;19;20466;-37
2023/10/08 04:51:21;;;;;;;11.03;2.33;;;;;;;8.07;100.00;101976.94;7374167;19;20476;-37
2023/10/08 04:53:51;;;;;;;6.13;2.03;;;;;;;8.14;100.00;101979.16;7398661;19;20407;-37
2023/10/08 04:56:22;;;;;;;7.63;1.93;;;;;;;8.02;100.00;101973.16;7398138;19;20425;-37
2023/10/08 04:58:56;;;;;;;8.60;2.57;;;;;;;7.96;100.00;101973.59;7382911;19;20412;-36
2023/10/08 05:01:38;;;;;;;14.90;5.50;;;;;;;7.97;100.00;101976.31;7396895;19;20459;-37
2023/10/08 05:04:23;;;;;;;6.47;1.87;;;;;;;7.87;100.00;101978.97;7376193;19;20423;-37
2023/10/08 05:07:17;;;;;;;4.90;2.17;;;;;;;7.89;100.00;101967.13;7397638;19;20424;-37
2023/10/08 05:10:11;;;;;;;16.37;2.90;;;;;;;7.93;100.00;101979.41;7373562;19;20387;-37
2023/10/08 05:12:46;;;;;;;6.83;1.77;;;;;;;8.00;100.00;101996.16;7396019;19;20446;-37
2023/10/08 05:15:32;;;;;;;9.73;1.93;;;;;;;8.00;100.00;102019.28;7372917;19;20457;-38
2023/10/08 05:18:19;;;;;;;8.40;2.57;;;;;;;7.93;100.00;102012.81;7396215;19;20495;-36
2023/10/08 05:26:31;;;;;;;4.43;1.33;;;;;;;7.97;100.00;102007.13;7374829;19;20431;-37
2023/10/08 05:29:03;;;;;;;5.47;1.73;;;;;;;8.04;100.00;102002.41;7374616;19;20411;-37
2023/10/08 05:31:46;;;;;;;8.07;1.60;;;;;;;7.95;100.00;102003.53;7392035;19;20439;-37
2023/10/08 05:34:22;;;;;;;11.13;1.80;;;;;;;7.82;100.00;102006.00;7372132;19;20387;-37
2023/10/08 05:37:14;;;;;;;10.00;1.80;;;;;;;7.80;100.00;102020.44;7395261;19;20760;-37
2023/10/08 05:39:41;;;;;;;7.93;2.67;;;;;;;7.79;100.00;102016.06;7373818;19;20978;-37
2023/10/08 05:42:20;;;;;;;3.07;1.47;;;;;;;7.88;100.00;102037.28;7393047;19;20498;-37
2023/10/08 05:45:13;;;;;;;5.87;1.53;;;;;;;7.85;100.00;102042.22;7370292;19;20411;-36
2023/10/08 05:48:06;;;;;;;9.53;1.50;;;;;;;7.88;100.00;102042.44;7394151;19;20425;-37
2023/10/08 05:50:39;;;;;;;10.17;2.17;;;;;;;7.84;100.00;102042.97;7371806;19;20989;-41
2023/10/08 05:53:29;;;;;;;4.07;1.70;;;;;;;7.78;100.00;102040.88;7397942;19;20413;-37
2023/10/08 05:56:16;;;;;;;9.70;2.70;;;;;;;7.79;100.00;102044.34;7372230;19;20816;-36
2023/10/08 05:59:00;;;;;;;13.90;1.80;;;;;;;7.77;100.00;102053.59;7397598;19;20408;-36
2023/10/08 06:01:39;;;;;;;8.50;1.90;;;;;;;7.72;100.00;102049.78;7372590;19;20451;-38
2023/10/08 06:07:12;;;;;;;2.80;1.37;;;;;;;7.67;100.00;102052.91;7391795;19;20415;-36
2023/10/08 06:09:50;;;;;;;10.00;1.60;;;;;;;7.68;100.00;102062.41;7370856;19;20395;-39
2023/10/08 06:12:30;;;;;;;12.53;2.30;;;;;;;7.64;100.00;102075.78;7393400;19;21046;-36
2023/10/08 06:15:07;;;;;;;6.10;1.50;;;;;;;7.80;100.00;102072.69;7369857;19;20391;-36
2023/10/08 06:18:04;;;;;;;18.30;9.20;;;;;;;7.89;100.00;102087.91;7393979;19;20986;-36
2023/10/08 06:20:40;;;;;;;17.90;9.63;;;;;;;8.16;100.00;102090.72;7369757;19;20419;-36
2023/10/08 06:23:11;;;;;;;32.73;11.67;;;;;;;8.27;100.00;102083.78;7395620;19;20400;-36
2023/10/08 06:25:47;;;;;;;17.20;9.80;;;;;;;8.41;100.00;102089.91;7371630;19;20782;-37
2023/10/08 06:28:19;;;;;;;18.83;8.27;;;;;;;8.74;100.00;102093.16;7394058;19;20459;-36
2023/10/08 06:30:49;;;;;;;8.47;3.83;;;;;;;8.77;100.00;102090.78;7367069;19;20486;-35
2023/10/08 06:33:19;;;;;;;21.80;7.80;;;;;;;8.97;100.00;102087.84;7390941;19;20411;-36
2023/10/08 06:36:02;;;;;;;38.33;17.40;;;;;;;9.24;100.00;102098.25;7370504;19;20471;-37
2023/10/08 06:38:33;;;;;;;19.87;8.40;;;;;;;9.36;100.00;102111.06;7394544;19;20404;-36
2023/10/08 06:41:08;;;;;;;46.63;20.17;;;;;;;9.46;100.00;102123.78;7369618;19;20558;-36
2023/10/08 06:43:39;;;;;;;27.83;10.87;;;;;;;9.35;100.00;102129.88;7393847;19;20503;-36
2023/10/08 06:46:12;;;;;;;6.77;3.27;;;;;;;9.36;100.00;102145.44;7370510;19;20459;-36
2023/10/08 06:48:43;;;;;;;29.30;12.87;;;;;;;9.18;100.00;102173.41;7394372;19;20490;-35
2023/10/08 06:51:17;;;;;;;4.33;2.33;;;;;;;8.80;100.00;102199.88;7369115;19;20455;-36
2023/10/08 06:53:49;;;;;;;16.83;9.60;;;;;;;8.83;100.00;102216.47;7394367;19;20756;-37
2023/10/08 06:56:20;;;;;;;5.27;1.70;;;;;;;8.68;100.00;102229.09;7371734;19;20451;-36
2023/10/08 06:58:52;;;;;;;6.00;3.00;;;;;;;8.89;100.00;102228.84;7394065;19;20404;-36
2023/10/08 07:01:24;;;;;;;16.43;8.00;;;;;;;9.15;100.00;102237.56;7370225;19;20451;-37
2023/10/08 07:04:03;;;;;;;13.80;4.57;;;;;;;9.24;100.00;102239.91;7371920;19;20783;-36
2023/10/08 07:06:37;;;;;;;11.63;2.07;;;;;;;8.96;100.00;102243.97;7392789;19;20433;-36
2023/10/08 07:09:13;;;;;;;10.63;4.70;;;;;;;9.23;100.00;102246.72;7370850;19;20411;-36
2023/10/08 07:11:45;;;;;;;10.90;4.40;;;;;;;9.50;100.00;102239.16;7391741;19;20468;-36
2023/10/08 07:14:15;;;;;;;6.80;3.23;;;;;;;9.41;100.00;102254.88;7367562;19;21353;-36
2023/10/08 07:16:47;;;;;;;7.70;1.83;;;;;;;9.25;100.00;102267.44;7385794;19;20491;-36
2023/10/08 07:19:23;;;;;;;5.33;1.40;;;;;;;9.09;100.00;102262.88;7368730;19;20397;-36
2023/10/08 07:22:03;;;;;;;8.87;3.10;;;;;;;8.98;100.00;102268.13;7389259;19;20467;-36
2023/10/08 07:24:34;;;;;;;9.17;2.93;;;;;;;9.00;100.00;102261.44;7367968;19;20498;-36
2023/10/08 07:27:08;;;;;;;10.90;3.10;;;;;;;8.99;100.00;102275.09;7389814;19;20474;-36
2023/10/08 07:29:38;;;;;;;10.60;4.00;;;;;;;8.98;100.00;102272.41;7364623;19;20403;-36
2023/10/08 07:32:12;;;;;;;10.13;2.00;;;;;;;8.99;100.00;102276.75;7390090;19;20803;-38
2023/10/08 07:34:44;;;;;;;20.33;7.30;;;;;;;9.10;100.00;102287.81;7367503;19;20643;-36
2023/10/08 07:37:16;;;;;;;12.87;4.30;;;;;;;9.05;100.00;102295.22;7390176;19;21269;-36
2023/10/08 07:39:47;;;;;;;11.30;2.50;;;;;;;9.10;100.00;102292.97;7366072;19;20403;-37
2023/10/08 07:42:17;;;;;;;7.57;2.27;;;;;;;9.03;100.00;102297.69;7394497;19;20503;-35
2023/10/08 07:44:47;;;;;;;6.70;1.63;;;;;;;9.09;100.00;102286.03;7370435;19;20471;-36
2023/10/08 07:47:16;;;;;;;4.50;1.90;;;;;;;9.10;100.00;102292.97;7399475;19;20953;-36
2023/10/08 07:49:46;;;;;;;4.00;1.50;;;;;;;9.20;100.00;102300.59;7372813;19;20423;-38
2023/10/08 07:52:18;;;;;;;5.90;1.60;;;;;;;9.23;100.00;102298.22;7397346;19;20463;-36
2023/10/08 07:54:48;;;;;;;11.73;1.80;;;;;;;9.25;100.00;102299.25;7373326;19;20784;-37
2023/10/08 07:57:25;;;;;;;4.07;1.40;;;;;;;9.31;100.00;102301.34;7399777;19;20407;-37
2023/10/08 08:00:17;;;;;;;4.70;1.60;;;;;;;9.34;100.00;102321.28;7374570;19;20395;-36
2023/10/08 08:02:46;;;;;;;15.03;4.73;;;;;;;9.40;100.00;102332.03;7398256;19;20454;-36
2023/10/08 08:05:17;;;;;;;20.40;3.10;;;;;;;9.41;100.00;102344.13;7371659;19;21173;-36
2023/10/08 08:07:49;;;;;;;11.50;4.60;;;;;;;9.43;100.00;102356.34;7398453;19;20411;-36
2023/10/08 08:10:23;;;;;;;5.10;1.53;;;;;;;9.42;100.00;102375.16;7373830;19;20427;-36
2023/10/08 08:12:56;;;;;;;15.43;5.77;;;;;;;9.48;100.00;102394.44;7400798;19;20431;-36
2023/10/08 08:15:28;;;;;;;2.73;1.20;;;;;;;9.47;100.00;102413.25;7370953;19;20433;-37
2023/10/08 08:17:58;;;;;;;7.80;2.20;;;;;;;9.50;100.00;102421.19;7401181;19;20417;-36
2023/10/08 08:20:38;;;;;;;8.53;2.57;;;;;;;9.58;100.00;102433.84;7372551;19;20419;-36
2023/10/08 08:23:11;;;;;;;6.10;1.50;;;;;;;9.64;100.00;102441.13;7397981;19;20419;-36
2023/10/08 08:25:55;;;;;;;6.80;1.10;;;;;;;9.63;100.00;102451.34;7374657;19;20502;-36
2023/10/08 08:28:25;;;;;;;7.63;1.30;;;;;;;9.66;100.00;102467.00;7399778;19;20416;-36
2023/10/08 08:30:57;;;;;;;3.50;1.40;;;;;;;9.65;100.00;102491.00;7371769;19;20474;-38
2023/10/08 08:33:35;;;;;;;11.27;1.10;;;;;;;9.68;100.00;102498.94;7397090;19;20412;-35
2023/10/08 08:36:05;;;;;;;4.00;1.17;;;;;;;9.74;100.00;102512.28;7373784;19;20440;-36
2023/10/08 08:38:39;;;;;;;9.30;1.50;;;;;;;9.76;100.00;102525.28;7397843;19;20431;-36
2023/10/08 08:41:12;;;;;;;5.37;1.50;;;;;;;9.82;100.00;102534.38;7373730;19;20447;-36
2023/10/08 08:43:44;;;;;;;4.17;1.23;;;;;;;9.93;100.00;102549.72;7397710;19;20765;-36
2023/10/08 08:46:14;;;;;;;5.00;1.20;;;;;;;10.01;100.00;102561.50;7375404;19;20514;-36
2023/10/08 08:48:47;;;;;;;5.70;1.03;;;;;;;10.02;100.00;102576.19;7397177;19;20395;-36
2023/10/08 08:51:18;;;;;;;2.80;1.00;;;;;;;10.12;100.00;102588.94;7374115;19;20458;-37
2023/10/08 08:53:52;;;;;;;5.30;0.90;;;;;;;10.12;100.00;102598.38;7394612;19;20432;-38
2023/10/08 08:56:23;;;;;;;5.93;1.10;;;;;;;10.17;100.00;102611.63;7375917;19;20514;-35
2023/10/08 08:58:52;;;;;;;2.33;0.60;;;;;;;10.32;100.00;102643.72;7387511;19;20400;-36
2023/10/08 09:01:22;;;;;;;4.17;1.30;;;;;;;10.43;100.00;102659.09;7395640;19;20439;-36
2023/10/08 09:03:52;;;;;;;8.80;1.40;;;;;;;10.52;100.00;102659.78;7382652;19;20447;-35
2023/10/08 09:06:22;;;;;;;5.07;1.30;;;;;;;10.55;100.00;102659.97;7397014;19;20414;-36
2023/10/08 09:09:13;;;;;;;2.90;1.03;;;;;;;10.62;100.00;102654.47;7373896;19;20402;-36
2023/10/08 09:11:43;;;;;;;6.87;1.10;;;;;;;10.78;100.00;102660.75;7394862;19;20456;-36
2023/10/08 09:14:13;;;;;;;6.43;1.03;;;;;;;10.78;100.00;102663.31;7371875;19;21241;-36
2023/10/08 09:16:43;;;;;;;3.60;1.07;;;;;;;10.74;100.00;102661.31;7396077;19;20479;-37
2023/10/08 09:19:18;;;;;;;4.73;1.70;;;;;;;10.91;100.00;102644.41;7374913;19;20400;-37
2023/10/08 09:22:03;;;;;;;5.40;1.20;;;;;;;10.93;100.00;102648.03;7396028;19;20444;-36
2023/10/08 09:24:38;;;;;;;3.00;0.97;;;;;;;11.05;100.00;102666.97;7372533;19;20391;-40
2023/10/08 09:27:08;;;;;;;7.73;1.00;;;;;;;11.10;100.00;102663.78;7395837;19;21062;-42
2023/10/08 09:29:39;;;;;;;5.80;1.00;;;;;;;11.23;100.00;102656.09;7373491;19;20765;-36
2023/10/08 09:32:13;;;;;;;4.10;1.03;;;;;;;11.19;100.00;102670.50;7395423;19;20978;-36
2023/10/08 09:34:43;;;;;;;3.60;1.10;;;;;;;11.37;100.00;102680.31;7372209;19;20403;-37
2023/10/08 09:37:13;;;;;;;4.40;1.10;;;;;;;11.23;100.00;102681.06;7393734;19;20495;-35
2023/10/08 09:39:45;;;;;;;4.10;0.90;;;;;;;11.35;100.00;102671.59;7372761;19;20433;-36
2023/10/08 09:42:15;;;;;;;4.33;1.20;;;;;;;11.35;100.00;102680.22;7393780;19;20818;-35
2023/10/08 09:44:45;;;;;;;5.87;2.07;;;;;;;11.48;100.00;102689.72;7374255;19;20395;-36
2023/10/08 09:47:18;;;;;;;5.20;1.33;;;;;;;11.43;100.00;102704.00;7397769;19;20411;-38
2023/10/08 09:49:54;;;;;;;7.70;1.27;;;;;;;11.47;100.00;102731.88;7371876;19;20653;-36
2023/10/08 09:52:28;;;;;;;5.33;2.00;;;;;;;11.50;100.00;102732.88;7394570;19;21005;-37
2023/10/08 09:55:03;;;;;;;9.93;2.50;;;;;;;11.69;100.00;102735.94;7368576;19;20426;-37
2023/10/08 09:57:33;;;;;;;5.80;1.17;;;;;;;11.88;100.00;102726.84;7397343;19;20395;-36
2023/10/08 10:00:04;;;;;;;3.50;1.10;;;;;;;11.82;100.00;102737.69;7371419;19;20514;-37
2023/10/08 10:02:35;;;;;;;14.60;4.33;;;;;;;12.01;100.00;102739.81;7395252;19;20439;-36
2023/10/08 10:05:06;;;;;;;4.67;1.10;;;;;;;12.07;100.00;102741.06;7372731;19;20417;-36
2023/10/08 10:07:35;;;;;;;6.43;1.53;;;;;;;12.08;100.00;102755.78;7395224;19;20407;-36
2023/10/08 10:10:13;;;;;;;4.30;1.27;;;;;;;12.10;100.00;102756.81;7370883;19;21026;-37
2023/10/08 10:12:44;;;;;;;3.00;1.00;;;;;;;12.12;100.00;102752.63;7395958;19;20476;-37
2023/10/08 10:15:17;;;;;;;4.53;1.67;;;;;;;11.92;100.00;102746.97;7369904;19;20415;-39
2023/10/08 10:18:01;;;;;;;7.33;2.43;;;;;;;11.92;100.00;102749.56;7392206;19;20415;-37
2023/10/08 10:20:34;;;;;;;4.70;1.43;;;;;;;11.86;100.00;102764.66;7369339;19;20483;-36
2023/10/08 10:23:40;;;;;;;6.67;2.30;;;;;;;11.91;100.00;102755.53;7396906;19;20435;-36
2023/10/08 10:26:30;;;;;;;7.40;1.40;;;;;;;12.11;100.00;102774.13;7371276;19;20490;-37
2023/10/08 10:29:26;;;;;;;5.73;1.47;;;;;;;12.41;100.00;102772.69;7372164;19;20409;-37
2023/10/08 10:31:58;;;;;;;10.13;3.87;;;;;;;12.44;100.00;102772.00;7393790;19;20485;-37
2023/10/08 10:34:30;;;;;;;4.50;1.00;;;;;;;12.56;100.00;102796.09;7369527;19;20986;-38
2023/10/08 10:37:08;;;;;;;2.70;0.90;;;;;;;12.66;100.00;102791.50;7394030;19;20412;-37
2023/10/08 10:39:39;;;;;;;8.17;3.50;;;;;;;12.80;100.00;102795.94;7370248;19;20822;-36
2023/10/08 10:42:20;;;;;;;5.97;0.70;;;;;;;12.70;100.00;102775.38;7392445;19;20448;-37
2023/10/08 10:44:53;;;;;;;2.20;0.70;;;;;;;12.82;100.00;102786.56;7370681;19;20423;-36
2023/10/08 10:47:42;;;;;;;2.70;1.00;;;;;;;12.65;100.00;102776.78;7393062;19;21234;-37
2023/10/08 10:52:57;;;;;;;7.23;2.97;;;;;;;12.88;100.00;102773.13;7394205;19;20447;-36
2023/10/08 10:55:31;;;;;;;7.53;2.00;;;;;;;12.66;100.00;102773.38;7369031;19;20941;-37
2023/10/08 10:58:11;;;;;;;5.00;1.47;;;;;;;12.40;100.00;102767.38;7393812;19;20402;-37
2023/10/08 11:00:48;;;;;;;9.03;1.60;;;;;;;12.60;100.00;102788.56;7369580;19;20515;-37
2023/10/08 11:03:23;;;;;;;4.73;1.03;;;;;;;12.97;100.00;102775.38;7393606;19;20431;-38
2023/10/08 11:05:59;;;;;;;7.50;2.83;;;;;;;13.32;100.00;102768.94;7370888;19;20840;-37
2023/10/08 11:08:34;;;;;;;3.37;0.90;;;;;;;13.42;100.00;102766.91;7395072;19;20407;-40
2023/10/08 11:11:09;;;;;;;4.93;2.03;;;;;;;13.50;100.00;102764.03;7368489;19;20485;-36
2023/10/08 11:13:42;;;;;;;4.10;1.30;;;;;;;13.30;100.00;102765.38;7394616;19;21029;-37
2023/10/08 11:16:13;;;;;;;3.40;1.20;;;;;;;13.13;100.00;102760.81;7365652;19;20435;-39
2023/10/08 11:18:50;;;;;;;8.13;1.47;;;;;;;13.11;100.00;102763.31;7392416;19;20487;-37
2023/10/08 11:21:25;;;;;;;7.23;1.30;;;;;;;13.26;100.00;102753.00;7363559;19;20443;-37
2023/10/08 11:23:55;;;;;;;10.17;3.37;;;;;;;13.53;100.00;102752.97;7364636;19;20472;-37
2023/10/08 11:26:35;;;;;;;3.90;1.40;;;;;;;13.76;100.00;102756.94;7385459;19;20420;-38
2023/10/08 11:29:14;;;;;;;9.80;1.60;;;;;;;13.78;100.00;102757.03;7365440;19;20379;-36
2023/10/08 11:31:44;;;;;;;4.37;1.60;;;;;;;13.75;100.00;102767.25;7388059;19;20786;-37
2023/10/08 11:34:19;;;;;;;5.10;1.10;;;;;;;13.55;100.00;102769.53;7367790;19;20793;-36
2023/10/08 11:36:55;;;;;;;8.47;1.73;;;;;;;13.48;100.00;102764.72;7391450;19;20474;-36
2023/10/08 11:39:30;;;;;;;4.03;1.00;;;;;;;13.27;100.00;102770.34;7371155;19;21305;-37
2023/10/08 11:42:16;;;;;;;3.27;0.90;;;;;;;13.34;100.00;102767.34;7390482;19;20450;-36
2023/10/08 11:44:52;;;;;;;4.27;1.10;;;;;;;13.29;100.00;102760.09;7368565;19;20402;-35
2023/10/08 11:47:22;;;;;;;4.73;1.43;;;;;;;13.30;100.00;102772.25;7386137;19;20395;-37
2023/10/08 11:50:09;;;;;;;4.83;1.03;;;;;;;13.40;100.00;102743.50;7366007;19;20414;-36
2023/10/08 11:52:41;;;;;;;2.83;1.07;;;;;;;13.23;100.00;102699.28;7392075;19;21011;-36
2023/10/08 11:55:14;;;;;;;5.07;0.90;;;;;;;13.34;100.00;102613.50;7367610;19;20406;-36
2023/10/08 11:57:45;;;;;;;3.40;1.27;;;;;;;13.60;100.00;102666.94;7385366;19;20447;-36
2023/10/08 12:00:24;;;;;;;4.20;1.37;;;;;;;13.75;100.00;102734.41;7365433;19;20399;-37
2023/10/08 12:03:01;;;;;;;3.10;0.80;;;;;;;13.90;100.00;102718.88;7387451;19;20434;-36
2023/10/08 12:05:34;;;;;;;3.20;0.87;;;;;;;14.01;100.00;102622.59;7366539;19;20426;-36